createdAt,value
2023-01-25T00:01:49.334Z,5.70
2023-01-25T00:04:17.738Z,5.70
2023-01-25T00:06:45.958Z,5.70
2023-01-25T00:09:15.054Z,5.70
2023-01-25T00:11:44.347Z,5.70
2023-01-25T00:14:13.349Z,5.60
2023-01-25T00:16:42.184Z,5.60
2023-01-25T00:19:12.634Z,5.60
2023-01-25T00:21:41.163Z,5.60
2023-01-25T00:24:11.781Z,5.60
2023-01-25T00:26:40.613Z,5.60
2023-01-25T00:29:08.895Z,5.60
2023-01-25T00:31:48.372Z,5.60
2023-01-25T00:34:46.758Z,5.60
2023-01-25T00:37:25.734Z,5.60
2023-01-25T00:39:54.140Z,5.60
2023-01-25T00:42:22.786Z,5.60
2023-01-25T00:44:51.306Z,5.60
2023-01-25T00:47:19.881Z,5.60
2023-01-25T00:49:50.389Z,5.60
2023-01-25T00:52:18.637Z,5.60
2023-01-25T00:54:46.855Z,5.60
2023-01-25T00:57:15.750Z,5.60
2023-01-25T00:59:44.849Z,5.60
2023-01-25T01:02:13.788Z,5.60
2023-01-25T01:04:42.182Z,5.70
2023-01-25T01:07:13.613Z,5.70
2023-01-25T01:09:41.911Z,5.60
2023-01-25T01:12:10.191Z,5.50
2023-01-25T01:14:38.767Z,5.50
2023-01-25T01:17:07.032Z,5.40
2023-01-25T01:19:35.499Z,5.50
2023-01-25T01:22:03.726Z,5.50
2023-01-25T01:24:33.449Z,5.50
2023-01-25T01:27:01.667Z,5.50
2023-01-25T01:29:29.894Z,5.40
2023-01-25T01:31:58.227Z,5.40
2023-01-25T01:34:27.352Z,5.40
2023-01-25T01:36:55.558Z,5.40
2023-01-25T01:39:24.057Z,5.50
2023-01-25T01:41:53.738Z,5.50
2023-01-25T01:44:24.308Z,5.50
2023-01-25T01:46:56.309Z,5.40
2023-01-25T01:49:27.713Z,5.40
2023-01-25T01:52:02.045Z,5.30
2023-01-25T01:54:35.400Z,5.30
2023-01-25T01:57:08.842Z,5.40
2023-01-25T01:59:42.925Z,5.30
2023-01-25T02:02:11.235Z,5.30
2023-01-25T02:04:39.677Z,5.30
2023-01-25T02:07:14.661Z,5.30
2023-01-25T02:09:44.576Z,5.30
2023-01-25T02:12:15.256Z,5.30
2023-01-25T02:14:49.402Z,5.30
2023-01-25T02:17:19.070Z,5.30
2023-01-25T02:19:55.103Z,5.30
2023-01-25T02:22:33.658Z,5.40
2023-01-25T02:25:07.436Z,5.40
2023-01-25T02:27:40.556Z,5.40
2023-01-25T02:30:10.672Z,5.50
2023-01-25T02:32:39.068Z,5.50
2023-01-25T02:35:08.524Z,5.50
2023-01-25T02:37:37.103Z,5.50
2023-01-25T02:40:07.684Z,5.50
2023-01-25T02:42:36.330Z,5.50
2023-01-25T02:45:07.473Z,5.50
2023-01-25T02:47:35.930Z,5.60
2023-01-25T02:50:04.620Z,5.60
2023-01-25T02:52:32.856Z,5.50
2023-01-25T02:55:01.109Z,5.60
2023-01-25T02:57:30.741Z,5.60
2023-01-25T02:59:59.101Z,5.60
2023-01-25T03:02:27.382Z,5.60
2023-01-25T03:04:55.613Z,5.70
2023-01-25T03:07:23.858Z,5.60
2023-01-25T03:09:52.088Z,5.70
2023-01-25T03:12:20.293Z,5.70
2023-01-25T03:14:49.937Z,5.70
2023-01-25T03:17:18.136Z,5.60
2023-01-25T03:19:46.387Z,5.60
2023-01-25T03:22:14.686Z,5.60
2023-01-25T03:24:42.921Z,5.60
2023-01-25T03:27:14.587Z,5.60
2023-01-25T03:29:43.030Z,5.60
2023-01-25T03:32:13.212Z,5.60
2023-01-25T03:34:41.486Z,5.50
2023-01-25T03:37:09.711Z,5.50
2023-01-25T03:39:37.943Z,5.50
2023-01-25T03:42:06.438Z,5.60
2023-01-25T03:44:34.721Z,5.60
2023-01-25T03:47:03.082Z,5.60
2023-01-25T03:49:32.843Z,5.70
2023-01-25T03:52:01.103Z,5.70
2023-01-25T03:54:29.342Z,5.80
2023-01-25T03:56:57.536Z,5.80
2023-01-25T03:59:26.034Z,5.80
2023-01-25T04:01:54.420Z,5.80
2023-01-25T04:04:22.777Z,5.80
2023-01-25T04:06:52.452Z,5.80
2023-01-25T04:09:20.770Z,5.80
2023-01-25T04:11:51.192Z,5.80
2023-01-25T04:14:31.806Z,5.80
2023-01-25T04:17:05.547Z,5.80
2023-01-25T04:19:33.851Z,5.80
2023-01-25T04:22:03.480Z,5.80
2023-01-25T04:24:31.775Z,5.80
2023-01-25T04:26:59.998Z,5.80
2023-01-25T04:29:40.025Z,5.80
2023-01-25T04:32:09.635Z,5.80
2023-01-25T04:34:38.005Z,5.80
2023-01-25T04:37:07.726Z,5.80
2023-01-25T04:39:35.962Z,5.80
2023-01-25T04:42:04.257Z,5.90
2023-01-25T04:44:32.614Z,5.90
2023-01-25T04:47:00.822Z,5.90
2023-01-25T04:49:29.145Z,5.90
2023-01-25T04:51:57.450Z,5.90
2023-01-25T04:54:27.178Z,5.90
2023-01-25T04:56:55.419Z,5.90
2023-01-25T04:59:23.789Z,5.90
2023-01-25T05:01:52.091Z,5.90
2023-01-25T05:04:20.463Z,5.90
2023-01-25T05:06:48.671Z,5.90
2023-01-25T05:09:17.769Z,5.80
2023-01-25T05:11:47.467Z,5.90
2023-01-25T05:14:15.717Z,5.80
2023-01-25T05:16:43.979Z,5.90
2023-01-25T05:19:12.448Z,5.90
2023-01-25T05:21:57.999Z,5.80
2023-01-25T05:24:26.789Z,5.90
2023-01-25T05:27:01.263Z,5.80
2023-01-25T05:29:29.585Z,5.80
2023-01-25T05:31:58.166Z,5.80
2023-01-25T05:34:27.323Z,5.90
2023-01-25T05:36:55.706Z,5.90
2023-01-25T05:39:23.941Z,6.00
2023-01-25T05:41:52.381Z,6.00
2023-01-25T05:44:22.217Z,5.90
2023-01-25T05:46:50.825Z,6.00
2023-01-25T05:49:19.604Z,6.00
2023-01-25T05:51:49.128Z,5.90
2023-01-25T05:54:19.530Z,5.90
2023-01-25T05:56:50.239Z,5.90
2023-01-25T05:59:18.567Z,5.90
2023-01-25T06:01:48.191Z,5.80
2023-01-25T06:04:17.711Z,5.80
2023-01-25T06:06:45.959Z,5.80
2023-01-25T06:09:14.615Z,5.80
2023-01-25T06:11:45.769Z,5.80
2023-01-25T06:14:14.245Z,5.90
2023-01-25T06:16:42.763Z,5.90
2023-01-25T06:19:14.292Z,5.90
2023-01-25T06:21:42.598Z,5.90
2023-01-25T06:24:11.027Z,5.90
2023-01-25T06:26:39.320Z,5.90
2023-01-25T06:29:08.002Z,6.00
2023-01-25T06:31:36.503Z,6.00
2023-01-25T06:34:06.588Z,6.00
2023-01-25T06:36:36.392Z,6.00
2023-01-25T06:39:05.195Z,6.00
2023-01-25T06:41:33.446Z,6.00
2023-01-25T06:44:01.751Z,6.00
2023-01-25T06:46:32.815Z,6.00
2023-01-25T06:49:01.139Z,6.00
2023-01-25T06:51:29.419Z,6.00
2023-01-25T06:54:03.067Z,6.00
2023-01-25T06:56:32.758Z,6.00
2023-01-25T06:59:01.070Z,6.00
2023-01-25T07:01:30.642Z,6.00
2023-01-25T07:04:00.444Z,6.00
2023-01-25T07:06:34.280Z,6.00
2023-01-25T07:09:09.429Z,6.00
2023-01-25T07:11:38.166Z,6.00
2023-01-25T07:14:07.210Z,6.00
2023-01-25T07:16:38.652Z,6.00
2023-01-25T07:19:07.761Z,6.10
2023-01-25T07:21:36.148Z,6.10
2023-01-25T07:24:06.988Z,6.10
2023-01-25T07:26:35.481Z,6.10
2023-01-25T07:29:03.730Z,6.00
2023-01-25T07:31:32.068Z,6.00
2023-01-25T07:34:00.524Z,6.00
2023-01-25T07:36:28.846Z,6.00
2023-01-25T07:38:58.317Z,5.90
2023-01-25T07:41:28.353Z,5.90
2023-01-25T07:43:56.933Z,6.00
2023-01-25T07:46:25.289Z,6.00
2023-01-25T07:48:55.103Z,5.90
2023-01-25T07:51:24.344Z,5.90
2023-01-25T07:53:54.588Z,5.90
2023-01-25T07:56:24.025Z,6.00
2023-01-25T07:58:58.191Z,6.00
2023-01-25T08:01:28.335Z,6.10
2023-01-25T08:03:57.616Z,6.00
2023-01-25T08:06:30.741Z,6.00
2023-01-25T08:09:00.516Z,6.00
2023-01-25T08:11:30.438Z,6.00
2023-01-25T08:14:02.113Z,6.00
2023-01-25T08:16:32.116Z,6.00
2023-01-25T08:19:02.249Z,6.00
2023-01-25T08:21:32.862Z,6.00
2023-01-25T08:24:02.442Z,6.00
2023-01-25T08:26:30.732Z,6.10
2023-01-25T08:29:00.423Z,6.10
2023-01-25T08:31:30.376Z,6.10
2023-01-25T08:33:59.313Z,6.10
2023-01-25T08:36:28.956Z,6.10
2023-01-25T08:38:58.648Z,6.10
2023-01-25T08:41:28.142Z,6.10
2023-01-25T08:43:57.449Z,6.10
2023-01-25T08:46:31.281Z,6.30
2023-01-25T08:49:02.196Z,6.30
2023-01-25T08:51:31.704Z,6.20
2023-01-25T08:54:04.490Z,6.20
2023-01-25T08:56:32.843Z,6.20
2023-01-25T08:59:01.070Z,6.20
2023-01-25T09:01:30.828Z,6.20
2023-01-25T09:03:59.536Z,6.10
2023-01-25T09:06:27.830Z,6.10
2023-01-25T09:08:56.318Z,6.10
2023-01-25T09:11:24.669Z,6.10
2023-01-25T09:13:52.992Z,6.20
2023-01-25T09:16:28.957Z,6.10
2023-01-25T09:19:00.302Z,6.10
2023-01-25T09:21:29.253Z,6.10
2023-01-25T09:24:06.080Z,6.10
2023-01-25T09:26:36.916Z,6.10
2023-01-25T09:29:05.557Z,6.20
2023-01-25T09:31:33.996Z,6.20
2023-01-25T09:34:03.820Z,6.20
2023-01-25T09:36:32.059Z,6.30
2023-01-25T09:39:00.325Z,6.30
2023-01-25T09:42:15.157Z,6.30
2023-01-25T09:45:13.785Z,6.40
2023-01-25T09:47:50.158Z,6.40
2023-01-25T09:50:36.643Z,6.30
2023-01-25T09:53:21.964Z,6.30
2023-01-25T09:55:54.270Z,6.30
2023-01-25T09:58:27.175Z,6.30
2023-01-25T10:01:13.955Z,6.30
2023-01-25T10:03:49.403Z,6.30
2023-01-25T10:06:20.626Z,6.30
2023-01-25T10:08:58.860Z,6.50
2023-01-25T10:11:29.812Z,6.50
2023-01-25T10:13:58.852Z,6.40
2023-01-25T10:16:32.931Z,6.30
2023-01-25T10:19:11.701Z,6.30
2023-01-25T10:21:44.846Z,6.20
2023-01-25T10:24:44.916Z,6.30
2023-01-25T10:27:26.231Z,6.30
2023-01-25T10:29:58.315Z,6.30
2023-01-25T10:32:32.036Z,6.40
2023-01-25T10:35:22.763Z,6.30
2023-01-25T10:38:03.131Z,6.40
2023-01-25T10:40:40.408Z,6.40
2023-01-25T10:43:17.656Z,6.40
2023-01-25T10:45:45.918Z,6.40
2023-01-25T10:48:19.164Z,6.40
2023-01-25T10:50:50.821Z,6.50
2023-01-25T10:53:30.524Z,6.50
2023-01-25T10:56:07.285Z,6.50
2023-01-25T10:58:37.848Z,6.50
2023-01-25T11:01:08.469Z,6.50
2023-01-25T11:03:38.457Z,6.50
2023-01-25T11:06:07.406Z,6.50
2023-01-25T11:08:38.785Z,6.50
2023-01-25T11:11:25.909Z,6.50
2023-01-25T11:13:56.137Z,6.50
2023-01-25T11:16:34.206Z,6.50
2023-01-25T11:19:04.060Z,6.40
2023-01-25T11:21:34.958Z,6.40
2023-01-25T11:24:18.048Z,6.30
2023-01-25T11:26:47.180Z,6.30
2023-01-25T11:29:18.645Z,6.30
2023-01-25T11:31:49.039Z,6.40
2023-01-25T11:34:19.220Z,6.40
2023-01-25T11:37:09.584Z,6.40
2023-01-25T11:39:49.740Z,6.40
2023-01-25T11:42:28.848Z,6.40
2023-01-25T11:45:38.874Z,6.50
2023-01-25T11:48:22.559Z,6.50
2023-01-25T11:50:56.077Z,6.40
2023-01-25T11:53:52.443Z,6.50
2023-01-25T11:56:36.487Z,6.50
2023-01-25T11:59:17.916Z,6.50
2023-01-25T12:02:04.816Z,6.50
2023-01-25T12:04:51.759Z,6.50
2023-01-25T12:07:31.558Z,6.50
2023-01-25T12:10:23.992Z,6.50
2023-01-25T12:13:02.015Z,6.50
2023-01-25T12:15:44.250Z,6.50
2023-01-25T12:18:43.910Z,6.50
2023-01-25T12:21:31.253Z,6.50
2023-01-25T12:24:09.739Z,6.40
2023-01-25T12:26:47.710Z,6.40
2023-01-25T12:29:26.200Z,6.40
2023-01-25T12:31:59.789Z,6.40
2023-01-25T12:34:35.097Z,6.30
2023-01-25T12:37:12.344Z,6.30
2023-01-25T12:39:46.859Z,6.30
2023-01-25T12:42:21.345Z,6.30
2023-01-25T12:44:56.018Z,6.30
2023-01-25T12:47:33.059Z,6.40
2023-01-25T12:50:04.581Z,6.40
2023-01-25T12:52:36.160Z,6.40
2023-01-25T12:55:07.901Z,6.40
2023-01-25T12:57:43.122Z,6.40
2023-01-25T13:00:22.575Z,6.40
2023-01-25T13:03:09.464Z,6.40
2023-01-25T13:05:45.836Z,6.40
2023-01-25T13:08:31.706Z,6.30
2023-01-25T13:11:09.944Z,6.30
2023-01-25T13:13:38.240Z,6.20
2023-01-25T13:16:32.776Z,6.20
2023-01-25T13:19:01.317Z,6.20
2023-01-25T13:21:45.451Z,6.20
2023-01-25T13:24:19.994Z,6.20
2023-01-25T13:26:50.914Z,6.20
2023-01-25T13:29:48.167Z,6.20
2023-01-25T13:35:59.130Z,6.20
2023-01-25T13:38:32.642Z,6.20
2023-01-25T13:41:10.784Z,6.20
2023-01-25T13:43:40.566Z,6.20
2023-01-25T13:46:12.504Z,6.20
2023-01-25T13:48:50.203Z,6.20
2023-01-25T13:51:20.792Z,6.20
2023-01-25T13:53:59.839Z,6.10
2023-01-25T13:56:31.690Z,6.10
2023-01-25T13:59:00.571Z,6.10
2023-01-25T14:01:30.477Z,6.10
2023-01-25T14:04:02.152Z,6.00
2023-01-25T14:06:34.115Z,6.00
2023-01-25T14:09:07.686Z,6.00
2023-01-25T14:11:39.994Z,6.00
2023-01-25T14:14:20.877Z,6.00
2023-01-25T14:17:03.026Z,6.00
2023-01-25T14:19:32.392Z,6.00
2023-01-25T14:22:25.769Z,6.00
2023-01-25T14:25:11.170Z,6.00
2023-01-25T14:27:45.971Z,5.90
2023-01-25T14:30:20.554Z,5.90
2023-01-25T14:32:50.076Z,6.00
2023-01-25T14:35:54.160Z,6.00
2023-01-25T14:38:29.205Z,6.00
2023-01-25T14:41:00.585Z,6.00
2023-01-25T14:43:29.661Z,6.00
2023-01-25T14:53:45.211Z,6.00
2023-01-25T14:56:24.775Z,5.90
2023-01-25T14:58:59.595Z,5.90
2023-01-25T15:01:33.246Z,5.90
2023-01-25T15:04:01.742Z,5.90
2023-01-25T15:06:30.000Z,6.00
2023-01-25T15:08:59.780Z,6.00
2023-01-25T15:11:38.807Z,5.90
2023-01-25T15:14:18.441Z,5.90
2023-01-25T15:16:47.040Z,5.90
2023-01-25T15:19:26.920Z,5.80
2023-01-25T15:21:57.246Z,5.70
2023-01-25T15:24:27.413Z,5.70
2023-01-25T15:26:56.984Z,5.80
2023-01-25T15:29:27.207Z,5.80
2023-01-25T15:31:57.462Z,5.80
2023-01-25T15:34:30.595Z,5.80
2023-01-25T15:36:58.892Z,5.80
2023-01-25T15:39:30.091Z,5.80
2023-01-25T15:41:58.399Z,5.90
2023-01-25T15:44:26.755Z,5.90
2023-01-25T15:46:55.255Z,5.90
2023-01-25T15:49:27.419Z,5.90
2023-01-25T15:51:56.315Z,5.90
2023-01-25T15:54:24.956Z,5.80
2023-01-25T15:56:58.763Z,5.80
2023-01-25T15:59:27.288Z,5.70
2023-01-25T16:01:55.607Z,5.70
2023-01-25T16:04:25.369Z,5.70
2023-01-25T16:06:55.426Z,5.70
2023-01-25T16:09:25.554Z,5.70
2023-01-25T16:11:56.825Z,5.80
2023-01-25T16:14:29.276Z,5.80
2023-01-25T16:16:59.510Z,5.80
2023-01-25T16:19:27.898Z,5.80
2023-01-25T16:21:56.186Z,5.80
2023-01-25T16:24:24.761Z,5.90
2023-01-25T16:26:59.291Z,5.90
2023-01-25T16:29:27.870Z,5.90
2023-01-25T16:31:56.623Z,5.90
2023-01-25T16:34:25.159Z,5.90
2023-01-25T16:36:53.462Z,5.90
2023-01-25T16:39:23.562Z,5.90
2023-01-25T16:41:51.991Z,5.90
2023-01-25T16:44:21.824Z,5.90
2023-01-25T16:46:50.589Z,5.90
2023-01-25T16:49:22.240Z,5.90
2023-01-25T16:51:50.944Z,5.90
2023-01-25T16:54:20.659Z,5.80
2023-01-25T16:56:49.668Z,5.80
2023-01-25T16:59:18.839Z,5.80
2023-01-25T17:01:48.599Z,5.80
2023-01-25T17:04:17.096Z,5.80
2023-01-25T17:06:47.151Z,5.80
2023-01-25T17:09:24.899Z,5.80
2023-01-25T17:11:53.818Z,5.80
2023-01-25T17:14:23.096Z,5.80
2023-01-25T17:16:53.734Z,5.80
2023-01-25T17:19:22.234Z,5.80
2023-01-25T17:21:50.582Z,5.70
2023-01-25T17:24:21.679Z,5.80
2023-01-25T17:26:50.474Z,5.70
2023-01-25T17:29:18.793Z,5.80
2023-01-25T17:31:47.041Z,5.80
2023-01-25T17:34:19.571Z,5.80
2023-01-25T17:36:47.927Z,5.80
2023-01-25T17:39:17.370Z,5.80
2023-01-25T17:41:46.327Z,5.80
2023-01-25T17:44:15.468Z,5.80
2023-01-25T17:46:43.716Z,5.80
2023-01-25T17:49:14.219Z,5.80
2023-01-25T17:51:44.271Z,5.80
2023-01-25T17:54:13.528Z,5.80
2023-01-25T17:56:42.008Z,5.70
2023-01-25T17:59:11.737Z,5.70
2023-01-25T18:01:42.953Z,5.70
2023-01-25T18:04:13.364Z,5.70
2023-01-25T18:06:43.191Z,5.70
2023-01-25T18:09:11.828Z,5.70
2023-01-25T18:11:41.271Z,5.70
2023-01-25T18:14:12.912Z,5.70
2023-01-25T18:16:42.249Z,5.70
2023-01-25T18:19:11.689Z,5.70
2023-01-25T18:21:42.165Z,5.70
2023-01-25T18:24:26.132Z,5.70
2023-01-25T18:26:59.901Z,5.60
2023-01-25T18:29:41.203Z,5.60
2023-01-25T18:32:09.564Z,5.60
2023-01-25T18:34:37.896Z,5.60
2023-01-25T18:37:20.566Z,5.60
2023-01-25T18:39:51.825Z,5.60
2023-01-25T18:42:20.865Z,5.60
2023-01-25T18:44:49.404Z,5.60
2023-01-25T18:47:18.672Z,5.60
2023-01-25T18:49:47.843Z,5.50
2023-01-25T18:52:16.754Z,5.50
2023-01-25T18:54:45.318Z,5.50
2023-01-25T18:57:15.195Z,5.50
2023-01-25T18:59:43.790Z,5.40
2023-01-25T19:02:13.891Z,5.40
2023-01-25T19:04:42.613Z,5.40
2023-01-25T19:07:10.895Z,5.40
2023-01-25T19:09:39.227Z,5.40
2023-01-25T19:12:07.828Z,5.40
2023-01-25T19:14:37.496Z,5.40
2023-01-25T19:17:07.607Z,5.50
2023-01-25T19:19:35.990Z,5.50
2023-01-25T19:22:05.719Z,5.50
2023-01-25T19:24:34.497Z,5.50
2023-01-25T19:27:03.037Z,5.50
2023-01-25T19:29:31.329Z,5.50
2023-01-25T19:32:01.519Z,5.50
2023-01-25T19:34:29.782Z,5.50
2023-01-25T19:36:58.555Z,5.50
2023-01-25T19:39:26.808Z,5.50
2023-01-25T19:41:55.506Z,5.40
2023-01-25T19:44:24.975Z,5.40
2023-01-25T19:46:53.231Z,5.40
2023-01-25T19:49:23.876Z,5.40
2023-01-25T19:51:54.046Z,5.40
2023-01-25T19:54:24.290Z,5.40
2023-01-25T19:56:52.665Z,5.40
2023-01-25T19:59:22.290Z,5.40
2023-01-25T20:01:50.792Z,5.40
2023-01-25T20:04:20.963Z,5.50
2023-01-25T20:06:51.797Z,5.50
2023-01-25T20:09:24.984Z,5.50
2023-01-25T20:11:55.452Z,5.50
2023-01-25T20:14:23.779Z,5.50
2023-01-25T20:16:52.989Z,5.50
2023-01-25T20:19:21.569Z,5.50
2023-01-25T20:21:51.201Z,5.50
2023-01-25T20:24:19.539Z,5.50
2023-01-25T20:26:47.907Z,5.50
2023-01-25T20:29:16.341Z,5.50
2023-01-25T20:31:47.067Z,5.50
2023-01-25T20:34:18.470Z,5.50
2023-01-25T20:36:47.466Z,5.50
2023-01-25T20:39:19.421Z,5.50
2023-01-25T20:41:48.370Z,5.50
2023-01-25T20:44:18.720Z,5.40
2023-01-25T20:46:47.129Z,5.40
2023-01-25T20:49:17.318Z,5.40
2023-01-25T20:51:45.795Z,5.40
2023-01-25T20:54:14.394Z,5.40
2023-01-25T20:56:47.842Z,5.40
2023-01-25T20:59:17.840Z,5.40
2023-01-25T21:01:46.857Z,5.40
2023-01-25T21:04:15.222Z,5.40
2023-01-25T21:06:43.901Z,5.40
2023-01-25T21:09:13.526Z,5.40
2023-01-25T21:11:43.225Z,5.40
2023-01-25T21:14:11.587Z,5.40
2023-01-25T21:16:40.010Z,5.30
2023-01-25T21:19:08.751Z,5.30
2023-01-25T21:21:38.325Z,5.30
2023-01-25T21:24:07.495Z,5.30
2023-01-25T21:26:38.504Z,5.20
2023-01-25T21:29:08.772Z,5.20
2023-01-25T21:31:39.220Z,5.20
2023-01-25T21:34:09.305Z,5.10
2023-01-25T21:36:37.837Z,5.10
2023-01-25T21:39:06.195Z,5.10
2023-01-25T21:41:34.662Z,5.00
2023-01-25T21:44:20.752Z,5.00
2023-01-25T21:49:56.249Z,5.00
2023-01-25T21:52:24.502Z,5.00
2023-01-25T21:54:52.736Z,5.00
2023-01-25T21:57:21.362Z,5.00
2023-01-25T21:59:50.944Z,5.00
2023-01-25T22:02:21.650Z,5.10
2023-01-25T22:04:50.040Z,5.10
2023-01-25T22:07:18.318Z,5.10
2023-01-25T22:09:46.539Z,5.20
2023-01-25T22:12:14.821Z,5.20
2023-01-25T22:14:43.030Z,5.10
2023-01-25T22:17:11.359Z,5.10
2023-01-25T22:19:41.044Z,5.10
2023-01-25T22:22:09.329Z,5.10
2023-01-25T22:24:37.627Z,5.10
2023-01-25T22:27:38.668Z,5.10
2023-01-25T22:30:08.226Z,5.10
2023-01-25T22:32:36.618Z,5.10
2023-01-25T22:35:06.926Z,5.10
2023-01-25T22:37:38.095Z,5.10
2023-01-25T22:40:08.430Z,5.10
2023-01-25T22:42:36.889Z,5.10
2023-01-25T22:45:05.810Z,5.10
2023-01-25T22:47:34.007Z,5.10
2023-01-25T22:50:02.241Z,5.10
2023-01-25T22:52:31.857Z,5.10
2023-01-25T22:55:00.115Z,5.10
2023-01-25T22:57:28.426Z,5.10
2023-01-25T22:59:56.659Z,5.10
2023-01-25T23:02:24.892Z,5.10
2023-01-25T23:04:53.188Z,5.10
2023-01-25T23:07:21.511Z,5.10
2023-01-25T23:09:51.732Z,5.10
2023-01-25T23:12:20.095Z,5.10
2023-01-25T23:14:51.549Z,5.10
2023-01-25T23:17:38.668Z,5.10
2023-01-25T23:20:08.541Z,5.00
2023-01-25T23:22:36.903Z,5.00
2023-01-25T23:25:08.544Z,5.00
2023-01-25T23:27:36.829Z,5.00
2023-01-25T23:30:07.301Z,4.90
2023-01-25T23:32:35.617Z,4.90
2023-01-25T23:35:03.905Z,4.90
2023-01-25T23:37:32.155Z,4.80
2023-01-25T23:40:00.409Z,4.80
2023-01-25T23:42:30.052Z,4.80
2023-01-25T23:44:58.289Z,4.80
2023-01-25T23:47:26.482Z,4.90
2023-01-25T23:49:54.713Z,4.90
2023-01-25T23:52:23.566Z,4.90
2023-01-25T23:54:51.813Z,4.80
2023-01-25T23:57:20.304Z,4.80
2023-01-25T23:59:49.915Z,4.80
